createdAt,value
2023-02-06T00:00:14.679Z,-4.25
2023-02-06T00:03:17.656Z,-4.39
2023-02-06T00:06:20.302Z,-4.45
2023-02-06T00:09:23.238Z,-4.55
2023-02-06T00:12:25.880Z,-4.48
2023-02-06T00:15:29.065Z,-4.58
2023-02-06T00:18:32.246Z,-4.52
2023-02-06T00:21:35.148Z,-4.61
2023-02-06T00:24:38.948Z,-4.41
2023-02-06T00:27:41.999Z,-4.29
2023-02-06T00:30:47.606Z,-4.38
2023-02-06T00:33:50.953Z,-4.46
2023-02-06T00:36:54.440Z,-4.53
2023-02-06T00:39:58.292Z,-4.63
2023-02-06T00:43:00.953Z,-4.67
2023-02-06T00:46:03.991Z,-4.70
2023-02-06T00:49:06.591Z,-4.68
2023-02-06T00:52:09.528Z,-4.60
2023-02-06T00:55:12.526Z,-4.30
2023-02-06T00:58:15.581Z,-4.25
2023-02-06T01:01:19.244Z,-4.10
2023-02-06T01:04:22.524Z,-4.03
2023-02-06T01:07:25.145Z,-4.06
2023-02-06T01:10:29.132Z,-4.13
2023-02-06T01:13:31.819Z,-4.20
2023-02-06T01:16:35.108Z,-4.45
2023-02-06T01:19:38.313Z,-4.67
2023-02-06T01:22:41.524Z,-4.62
2023-02-06T01:25:44.469Z,-4.79
2023-02-06T01:28:48.289Z,-4.83
2023-02-06T01:31:50.894Z,-4.80
2023-02-06T01:34:53.780Z,-4.85
2023-02-06T01:37:56.414Z,-4.82
2023-02-06T01:41:01.088Z,-4.82
2023-02-06T01:44:12.885Z,-4.83
2023-02-06T01:47:15.929Z,-4.82
2023-02-06T01:50:19.288Z,-4.72
2023-02-06T01:53:24.167Z,-4.87
2023-02-06T01:56:30.532Z,-4.69
2023-02-06T01:59:35.035Z,-4.64
2023-02-06T02:02:43.051Z,-4.58
2023-02-06T02:05:48.268Z,-4.54
2023-02-06T02:08:54.247Z,-4.49
2023-02-06T02:11:57.451Z,-4.48
2023-02-06T02:15:00.219Z,-4.64
2023-02-06T02:18:27.476Z,-4.32
2023-02-06T02:21:40.973Z,-4.44
2023-02-06T02:25:16.449Z,-4.58
2023-02-06T02:28:56.131Z,-4.63
2023-02-06T02:32:30.169Z,-4.65
2023-02-06T02:36:12.661Z,-4.67
2023-02-06T02:39:29.666Z,-4.69
2023-02-06T02:42:41.330Z,-4.70
2023-02-06T02:45:55.845Z,-4.70
2023-02-06T02:49:05.978Z,-4.71
2023-02-06T02:52:09.074Z,-4.88
2023-02-06T02:55:22.306Z,-4.97
2023-02-06T02:58:34.705Z,-5.12
2023-02-06T03:01:46.957Z,-5.17
2023-02-06T03:05:00.149Z,-5.20
2023-02-06T03:08:25.791Z,-5.27
2023-02-06T03:11:30.175Z,-5.27
2023-02-06T03:14:40.265Z,-5.20
2023-02-06T03:18:02.729Z,-5.34
2023-02-06T03:21:08.474Z,-5.34
2023-02-06T03:24:24.486Z,-5.40
2023-02-06T03:27:29.829Z,-5.46
2023-02-06T03:30:34.506Z,-5.45
2023-02-06T03:33:44.540Z,-5.43
2023-02-06T03:36:48.580Z,-5.29
2023-02-06T03:39:51.504Z,-5.25
2023-02-06T03:42:58.501Z,-5.47
2023-02-06T03:46:05.623Z,-5.40
2023-02-06T03:49:11.692Z,-5.37
2023-02-06T03:52:20.989Z,-5.26
2023-02-06T03:55:24.922Z,-5.36
2023-02-06T03:58:27.720Z,-5.40
2023-02-06T04:01:31.192Z,-5.39
2023-02-06T04:04:39.941Z,-5.30
2023-02-06T04:07:42.601Z,-5.31
2023-02-06T04:10:45.685Z,-5.31
2023-02-06T04:13:48.267Z,-5.34
2023-02-06T04:16:51.485Z,-5.42
2023-02-06T04:19:54.276Z,-5.35
2023-02-06T04:23:00.200Z,-5.34
2023-02-06T04:26:02.884Z,-5.35
2023-02-06T04:29:05.822Z,-5.35
2023-02-06T04:32:09.091Z,-5.30
2023-02-06T04:35:12.506Z,-5.36
2023-02-06T04:38:15.425Z,-5.26
2023-02-06T04:41:18.526Z,-5.26
2023-02-06T04:44:21.763Z,-5.25
2023-02-06T04:47:24.600Z,-5.26
2023-02-06T04:50:31.324Z,-5.30
2023-02-06T04:53:34.954Z,-5.29
2023-02-06T04:56:37.511Z,-5.25
2023-02-06T04:59:41.333Z,-5.30
2023-02-06T05:02:44.887Z,-5.28
2023-02-06T05:05:47.837Z,-5.27
2023-02-06T05:08:50.917Z,-5.30
2023-02-06T05:11:53.832Z,-5.20
2023-02-06T05:14:56.577Z,-5.16
2023-02-06T05:17:59.462Z,-5.08
2023-02-06T05:21:02.911Z,-5.10
2023-02-06T05:24:06.700Z,-5.14
2023-02-06T05:27:09.293Z,-5.19
2023-02-06T05:30:14.171Z,-5.12
2023-02-06T05:33:17.012Z,-5.11
2023-02-06T05:36:20.594Z,-5.18
2023-02-06T05:39:24.427Z,-5.33
2023-02-06T05:42:27.399Z,-5.30
2023-02-06T05:45:30.075Z,-5.55
2023-02-06T05:48:34.883Z,-5.48
2023-02-06T05:51:38.259Z,-5.48
2023-02-06T05:54:41.150Z,-5.45
2023-02-06T05:57:44.857Z,-5.39
2023-02-06T06:00:50.774Z,-5.25
2023-02-06T06:03:53.714Z,-5.24
2023-02-06T06:06:57.196Z,-5.15
2023-02-06T06:10:00.309Z,-5.05
2023-02-06T06:13:03.201Z,-5.13
2023-02-06T06:16:09.269Z,-5.25
2023-02-06T06:19:15.956Z,-5.30
2023-02-06T06:22:20.065Z,-5.16
2023-02-06T06:25:22.823Z,-5.21
2023-02-06T06:28:25.963Z,-4.96
2023-02-06T06:31:31.044Z,-4.41
2023-02-06T06:34:34.148Z,-3.56
2023-02-06T06:37:37.057Z,-3.14
2023-02-06T06:40:41.186Z,-2.63
2023-02-06T06:43:44.223Z,-2.48
2023-02-06T06:46:47.210Z,-2.36
2023-02-06T06:49:49.861Z,-2.25
2023-02-06T06:52:53.183Z,-2.47
2023-02-06T06:55:55.888Z,-2.47
2023-02-06T06:58:59.987Z,-1.96
2023-02-06T07:02:03.143Z,-1.51
2023-02-06T07:05:09.402Z,-0.80
2023-02-06T07:08:13.496Z,-1.39
2023-02-06T07:11:18.856Z,-1.31
2023-02-06T07:14:24.303Z,-1.58
2023-02-06T07:17:27.940Z,-1.87
2023-02-06T07:20:31.338Z,-2.01
2023-02-06T07:23:38.830Z,-0.80
2023-02-06T07:26:41.664Z,-1.53
2023-02-06T07:29:44.860Z,-1.25
2023-02-06T07:32:47.973Z,-0.66
2023-02-06T07:35:50.893Z,0.06
2023-02-06T07:38:54.225Z,0.35
2023-02-06T07:41:57.519Z,-0.57
2023-02-06T07:45:06.142Z,-0.07
2023-02-06T07:48:10.897Z,-0.13
2023-02-06T07:51:14.309Z,-0.71
2023-02-06T07:54:19.394Z,-0.67
2023-02-06T07:57:23.948Z,-0.60
2023-02-06T08:00:28.597Z,-0.27
2023-02-06T08:03:32.200Z,0.01
2023-02-06T08:06:35.183Z,0.36
2023-02-06T08:09:38.441Z,0.55
2023-02-06T08:12:41.041Z,1.19
2023-02-06T08:15:45.142Z,1.63
2023-02-06T08:18:51.330Z,1.78
2023-02-06T08:21:54.278Z,2.07
2023-02-06T08:24:57.217Z,2.65
2023-02-06T08:28:00.322Z,2.66
2023-02-06T08:31:14.215Z,2.06
2023-02-06T08:34:17.545Z,2.86
2023-02-06T08:37:20.284Z,2.65
2023-02-06T08:40:25.760Z,2.96
2023-02-06T08:43:28.450Z,3.01
2023-02-06T08:46:33.535Z,3.01
2023-02-06T08:49:36.307Z,3.82
2023-02-06T08:52:40.327Z,3.35
2023-02-06T08:55:43.326Z,2.34
2023-02-06T08:58:46.693Z,2.96
2023-02-06T09:01:52.226Z,2.79
2023-02-06T09:04:55.500Z,2.77
2023-02-06T09:08:00.786Z,2.72
2023-02-06T09:11:13.410Z,3.52
2023-02-06T09:14:17.852Z,3.63
2023-02-06T09:17:25.062Z,3.36
2023-02-06T09:20:27.789Z,3.01
2023-02-06T09:23:36.168Z,3.50
2023-02-06T09:26:58.643Z,2.92
2023-02-06T09:30:05.496Z,2.98
2023-02-06T09:33:11.270Z,2.64
2023-02-06T09:36:17.704Z,3.06
2023-02-06T09:39:20.626Z,3.81
2023-02-06T09:42:36.803Z,3.86
2023-02-06T09:45:41.786Z,4.44
2023-02-06T09:48:49.190Z,4.63
2023-02-06T09:52:10.368Z,3.55
2023-02-06T09:55:26.027Z,4.13
2023-02-06T09:58:40.554Z,4.87
2023-02-06T10:02:00.803Z,5.59
2023-02-06T10:05:31.238Z,5.35
2023-02-06T10:10:31.909Z,4.19
2023-02-06T10:13:49.861Z,4.94
2023-02-06T10:17:04.025Z,4.97
2023-02-06T10:20:18.871Z,3.86
2023-02-06T10:23:37.532Z,4.82
2023-02-06T10:26:41.012Z,4.36
2023-02-06T10:29:46.890Z,5.12
2023-02-06T10:33:14.371Z,5.01
2023-02-06T10:36:34.476Z,5.99
2023-02-06T10:39:56.107Z,5.97
2023-02-06T10:43:25.127Z,5.67
2023-02-06T10:46:46.136Z,5.21
2023-02-06T10:49:56.098Z,5.01
2023-02-06T10:53:13.555Z,5.07
2023-02-06T10:56:21.147Z,5.41
2023-02-06T10:59:34.357Z,5.43
2023-02-06T11:02:42.588Z,5.34
2023-02-06T11:05:48.130Z,4.93
2023-02-06T11:09:02.423Z,5.16
2023-02-06T11:12:12.367Z,5.08
2023-02-06T11:15:23.293Z,5.21
2023-02-06T11:18:46.503Z,5.04
2023-02-06T11:22:11.910Z,5.57
2023-02-06T11:25:25.489Z,4.91
2023-02-06T11:28:30.572Z,4.91
2023-02-06T11:31:44.184Z,4.78
2023-02-06T11:34:57.166Z,5.13
2023-02-06T11:38:16.808Z,4.91
2023-02-06T11:41:19.512Z,5.67
2023-02-06T11:44:25.375Z,5.99
2023-02-06T11:47:32.496Z,5.66
2023-02-06T11:50:37.612Z,5.56
2023-02-06T11:53:58.261Z,4.94
2023-02-06T11:57:23.121Z,4.86
2023-02-06T12:00:25.863Z,3.65
2023-02-06T12:03:51.294Z,4.59
2023-02-06T12:07:01.100Z,5.01
2023-02-06T12:10:15.995Z,4.87
2023-02-06T12:13:25.625Z,5.38
2023-02-06T12:16:37.045Z,5.08
2023-02-06T12:19:51.369Z,5.28
2023-02-06T12:22:59.052Z,4.99
2023-02-06T12:26:07.643Z,4.16
2023-02-06T12:29:27.037Z,4.01
2023-02-06T12:32:38.559Z,4.50
2023-02-06T12:35:53.800Z,4.95
2023-02-06T12:39:07.457Z,4.31
2023-02-06T12:42:32.564Z,4.65
2023-02-06T12:46:08.386Z,3.68
2023-02-06T12:49:48.904Z,3.60
2023-02-06T12:53:12.221Z,4.18
2023-02-06T12:56:30.434Z,3.39
2023-02-06T12:59:57.923Z,3.32
2023-02-06T13:03:22.920Z,3.07
2023-02-06T13:06:29.028Z,3.09
2023-02-06T13:10:14.558Z,2.95
2023-02-06T13:13:30.122Z,2.94
2023-02-06T13:16:45.408Z,2.97
2023-02-06T13:20:12.785Z,2.51
2023-02-06T13:23:16.571Z,2.48
2023-02-06T13:26:19.320Z,1.99
2023-02-06T13:29:30.413Z,2.25
2023-02-06T13:32:42.132Z,2.67
2023-02-06T13:36:00.630Z,2.73
2023-02-06T13:39:14.828Z,2.53
2023-02-06T13:42:41.026Z,2.17
2023-02-06T13:46:06.859Z,2.15
2023-02-06T13:49:25.573Z,2.29
2023-02-06T13:52:39.371Z,1.74
2023-02-06T13:55:54.436Z,1.59
2023-02-06T13:59:05.990Z,1.93
2023-02-06T14:02:33.878Z,1.98
2023-02-06T14:05:44.131Z,1.90
2023-02-06T14:09:12.146Z,2.17
2023-02-06T14:12:44.509Z,1.76
2023-02-06T14:15:56.351Z,1.52
2023-02-06T14:19:11.600Z,1.73
2023-02-06T14:22:14.137Z,1.59
2023-02-06T14:25:25.611Z,1.56
2023-02-06T14:29:06.193Z,1.35
2023-02-06T14:32:35.941Z,1.48
2023-02-06T14:35:57.052Z,1.23
2023-02-06T14:39:20.318Z,1.22
2023-02-06T14:42:32.938Z,1.30
2023-02-06T14:45:42.029Z,1.44
2023-02-06T14:48:56.086Z,1.30
2023-02-06T14:52:00.023Z,1.03
2023-02-06T14:55:32.792Z,1.54
2023-02-06T14:58:36.153Z,1.36
2023-02-06T15:01:39.688Z,1.11
2023-02-06T15:04:50.001Z,1.03
2023-02-06T15:08:02.264Z,0.97
2023-02-06T15:11:16.920Z,0.78
2023-02-06T15:14:27.251Z,1.10
2023-02-06T15:17:31.584Z,1.08
2023-02-06T15:20:41.346Z,1.05
2023-02-06T15:24:24.425Z,0.90
2023-02-06T15:27:27.367Z,0.84
2023-02-06T15:30:37.558Z,0.82
2023-02-06T15:33:41.336Z,0.63
2023-02-06T15:36:44.759Z,0.57
2023-02-06T15:39:47.747Z,0.56
2023-02-06T15:42:51.461Z,0.48
2023-02-06T15:45:56.905Z,0.38
2023-02-06T15:49:00.015Z,0.32
2023-02-06T15:52:03.810Z,0.28
2023-02-06T15:55:06.977Z,0.22
2023-02-06T15:58:15.390Z,0.13
2023-02-06T16:01:20.249Z,0.07
2023-02-06T16:04:24.281Z,0.02
2023-02-06T16:07:38.313Z,-0.05
2023-02-06T16:10:41.911Z,-0.14
2023-02-06T16:13:45.950Z,-0.20
2023-02-06T16:17:01.745Z,-0.19
2023-02-06T16:20:24.279Z,-0.29
2023-02-06T16:23:31.019Z,-0.42
2023-02-06T16:26:48.167Z,-0.41
2023-02-06T16:29:55.942Z,-0.35
2023-02-06T16:33:11.821Z,-0.32
2023-02-06T16:36:17.340Z,-0.37
2023-02-06T16:39:21.474Z,-0.41
2023-02-06T16:42:35.218Z,-0.40
2023-02-06T16:45:38.146Z,-0.45
2023-02-06T16:48:41.554Z,-0.49
2023-02-06T16:51:47.013Z,-0.51
2023-02-06T16:54:51.036Z,-0.58
2023-02-06T16:57:58.718Z,-0.62
2023-02-06T17:01:08.615Z,-0.70
2023-02-06T17:04:14.808Z,-0.74
2023-02-06T17:07:21.800Z,-0.93
2023-02-06T17:10:42.638Z,-1.01
2023-02-06T17:13:45.932Z,-0.93
2023-02-06T17:16:48.474Z,-1.00
2023-02-06T17:19:52.333Z,-0.91
2023-02-06T17:22:55.115Z,-0.93
2023-02-06T17:25:58.200Z,-0.01
2023-02-06T17:29:01.152Z,-0.67
2023-02-06T17:32:06.932Z,-0.80
2023-02-06T17:35:09.709Z,-1.04
2023-02-06T17:38:12.838Z,-0.96
2023-02-06T17:41:15.458Z,-1.09
2023-02-06T17:44:18.838Z,-1.01
2023-02-06T17:47:21.638Z,-1.12
2023-02-06T17:50:28.887Z,-1.09
2023-02-06T17:53:31.717Z,-1.21
2023-02-06T17:56:35.234Z,-1.24
2023-02-06T17:59:38.137Z,-1.22
2023-02-06T18:02:41.458Z,-1.27
2023-02-06T18:05:47.118Z,-1.32
2023-02-06T18:08:50.181Z,-1.27
2023-02-06T18:11:53.194Z,-1.37
2023-02-06T18:14:57.442Z,-1.36
2023-02-06T18:18:01.858Z,-1.42
2023-02-06T18:21:05.040Z,-1.51
2023-02-06T18:24:08.152Z,-1.58
2023-02-06T18:27:11.800Z,-1.63
2023-02-06T18:30:15.352Z,-1.60
2023-02-06T18:33:21.960Z,-1.62
2023-02-06T18:36:25.376Z,-1.60
2023-02-06T18:39:28.498Z,-1.62
2023-02-06T18:42:50.600Z,-1.74
2023-02-06T18:45:53.397Z,-1.82
2023-02-06T18:48:57.266Z,-1.88
2023-02-06T18:52:00.194Z,-1.96
2023-02-06T18:55:04.239Z,-2.09
2023-02-06T18:58:07.104Z,-2.04
2023-02-06T19:01:20.310Z,-2.11
2023-02-06T19:04:23.701Z,-2.18
2023-02-06T19:07:28.052Z,-2.10
2023-02-06T19:10:34.277Z,-2.11
2023-02-06T19:13:40.836Z,-2.08
2023-02-06T19:16:48.090Z,-2.13
2023-02-06T19:19:52.006Z,-2.22
2023-02-06T19:22:56.804Z,-2.58
2023-02-06T19:25:59.942Z,-2.65
2023-02-06T19:29:02.958Z,-2.67
2023-02-06T19:32:07.784Z,-2.55
2023-02-06T19:35:12.059Z,-2.76
2023-02-06T19:38:15.224Z,-2.74
2023-02-06T19:41:20.689Z,-2.69
2023-02-06T19:44:23.491Z,-2.77
2023-02-06T19:47:30.427Z,-2.74
2023-02-06T19:50:35.179Z,-2.69
2023-02-06T19:53:45.364Z,-2.74
2023-02-06T19:56:48.637Z,-2.75
2023-02-06T19:59:51.565Z,-3.02
2023-02-06T20:02:54.501Z,-2.93
2023-02-06T20:06:01.613Z,-2.84
2023-02-06T20:09:05.124Z,-2.80
2023-02-06T20:12:11.483Z,-2.90
2023-02-06T20:15:15.182Z,-2.93
2023-02-06T20:18:18.162Z,-2.90
2023-02-06T20:21:24.221Z,-3.08
2023-02-06T20:24:30.318Z,-3.16
2023-02-06T20:27:36.582Z,-3.01
2023-02-06T20:30:40.105Z,-3.10
2023-02-06T20:33:45.840Z,-3.20
2023-02-06T20:36:50.229Z,-3.22
2023-02-06T20:39:52.906Z,-3.15
2023-02-06T20:42:56.264Z,-3.03
2023-02-06T20:45:59.115Z,-3.04
2023-02-06T20:49:06.521Z,-3.20
2023-02-06T20:52:09.237Z,-3.18
2023-02-06T20:55:13.113Z,-3.17
2023-02-06T20:58:15.940Z,-3.13
2023-02-06T21:01:25.112Z,-3.19
2023-02-06T21:04:33.165Z,-3.22
2023-02-06T21:07:37.840Z,-3.21
2023-02-06T21:10:41.171Z,-3.27
2023-02-06T21:13:44.701Z,-3.26
2023-02-06T21:16:48.127Z,-3.21
2023-02-06T21:19:51.198Z,-3.15
2023-02-06T21:22:55.124Z,-3.18
2023-02-06T21:25:57.966Z,-3.16
2023-02-06T21:29:02.485Z,-3.21
2023-02-06T21:32:13.759Z,-3.19
2023-02-06T21:35:16.946Z,-3.29
2023-02-06T21:38:20.330Z,-3.39
2023-02-06T21:41:22.869Z,-3.33
2023-02-06T21:44:26.497Z,-3.37
2023-02-06T21:47:29.145Z,-3.45
2023-02-06T21:50:32.377Z,-3.52
2023-02-06T21:53:35.520Z,-3.59
2023-02-06T21:56:39.064Z,-3.47
2023-02-06T21:59:42.107Z,-3.45
2023-02-06T22:02:45.156Z,-3.73
2023-02-06T22:05:48.003Z,-3.66
2023-02-06T22:08:53.067Z,-3.67
2023-02-06T22:11:56.011Z,-3.64
2023-02-06T22:14:59.489Z,-3.63
2023-02-06T22:18:04.448Z,-3.71
2023-02-06T22:21:13.099Z,-3.67
2023-02-06T22:24:16.582Z,-3.68
2023-02-06T22:27:19.338Z,-3.71
2023-02-06T22:30:23.084Z,-3.74
2023-02-06T22:33:28.766Z,-3.81
2023-02-06T22:36:33.090Z,-3.79
2023-02-06T22:39:36.057Z,-3.88
2023-02-06T22:42:39.197Z,-3.81
2023-02-06T22:45:42.601Z,-3.88
2023-02-06T22:48:46.321Z,-3.89
2023-02-06T22:51:51.516Z,-3.87
2023-02-06T22:54:54.415Z,-3.94
2023-02-06T22:57:57.093Z,-4.05
2023-02-06T23:01:03.697Z,-4.20
2023-02-06T23:04:08.935Z,-4.20
2023-02-06T23:07:11.822Z,-4.18
2023-02-06T23:10:14.926Z,-4.07
2023-02-06T23:13:17.797Z,-3.95
2023-02-06T23:16:21.155Z,-3.99
2023-02-06T23:19:24.564Z,-4.10
2023-02-06T23:22:27.263Z,-4.33
2023-02-06T23:25:30.521Z,-4.25
2023-02-06T23:28:33.934Z,-4.41
2023-02-06T23:31:37.302Z,-4.49
2023-02-06T23:34:40.384Z,-4.51
2023-02-06T23:37:43.234Z,-4.70
2023-02-06T23:40:46.258Z,-4.75
2023-02-06T23:43:54.778Z,-4.82
2023-02-06T23:46:57.391Z,-4.89
2023-02-06T23:50:02.231Z,-4.75
2023-02-06T23:53:04.933Z,-4.68
2023-02-06T23:56:12.912Z,-4.62
2023-02-06T23:59:15.546Z,-4.70
